Time;durP1;ratioP1;P1;durP2;ratioP2;P2;SDS_P1;SDS_P2;PMS_P1;PMS_P2;Temp;Humidity;BMP_temperature;BMP_pressure;BME280_temperature;BME280_humidity;BME280_pressure;Samples;Min_cycle;Max_cycle;Signal;HPM_P1;HPM_P2
2022/08/08 00:00:12;;;;;;;2.90;1.15;;;21.90;62.90;;;20.60;51.79;100365.25;10333338;28;97158;-83
2022/08/08 00:05:44;;;;;;;3.13;1.10;;;21.80;63.00;;;20.51;52.01;100367.44;10302703;28;96738;-83
2022/08/08 00:11:14;;;;;;;;;;;21.70;63.50;;;20.48;52.10;100354.41;10329198;28;96504;-82
2022/08/08 00:16:45;;;;;;;2.58;0.90;;;21.70;64.00;;;20.47;52.46;100341.97;10338786;28;98195;-83
2022/08/08 00:22:19;;;;;;;2.17;0.75;;;21.70;63.70;;;20.45;51.95;100334.13;10342567;28;96592;-83
2022/08/08 00:27:25;;;;;;;1.40;0.90;;;21.70;63.70;;;20.46;52.25;100324.97;10309015;28;97279;-82
2022/08/08 00:32:49;;;;;;;1.92;1.02;;;21.70;63.80;;;20.48;52.78;100327.41;10340555;28;97192;-83
2022/08/08 00:38:06;;;;;;;2.25;1.10;;;21.70;64.00;;;20.49;52.84;100319.09;10332289;28;96600;-83
2022/08/08 00:44:17;;;;;;;2.65;0.90;;;21.70;64.10;;;20.52;53.03;100312.44;10341841;28;96569;-83
2022/08/08 00:50:01;;;;;;;2.17;1.00;;;21.80;64.20;;;20.55;52.65;100322.75;10305043;28;97406;-83
2022/08/08 00:55:19;;;;;;;2.53;1.05;;;21.80;64.30;;;20.54;52.90;100326.50;10325249;28;96939;-83
2022/08/08 01:00:56;;;;;;;1.40;1.00;;;21.80;64.40;;;20.52;52.89;100320.53;10312359;28;96975;-83
2022/08/08 01:06:50;;;;;;;2.00;1.02;;;21.70;64.60;;;20.50;53.49;100309.94;10311708;28;96605;-83
2022/08/08 01:12:40;;;;;;;1.90;1.00;;;21.80;64.60;;;20.46;53.73;100330.34;10309176;28;96650;-83
2022/08/08 01:18:39;;;;;;;1.70;0.87;;;21.70;65.10;;;20.47;53.74;100326.59;10322152;28;98216;-82
2022/08/08 01:24:17;;;;;;;1.73;0.88;;;21.70;65.20;;;20.49;53.83;100323.66;10343954;28;96733;-82
2022/08/08 01:30:11;;;;;;;1.45;0.80;;;21.70;65.10;;;20.49;54.13;100321.78;10366059;28;96574;-83
2022/08/08 01:35:32;;;;;;;1.75;0.90;;;21.70;65.20;;;20.44;53.95;100320.78;10278538;28;98563;-83
2022/08/08 01:41:15;;;;;;;1.50;0.90;;;21.70;65.40;;;20.43;53.72;100322.66;10307189;28;96865;-83
2022/08/08 01:46:55;;;;;;;1.52;0.90;;;21.70;65.20;;;20.47;53.85;100321.19;10345099;28;96653;-82
2022/08/08 01:52:48;;;;;;;2.13;1.00;;;21.70;65.20;;;20.49;53.65;100324.50;10339915;28;96537;-83
2022/08/08 01:58:26;;;;;;;1.70;0.98;;;21.80;65.20;;;20.49;53.20;100324.50;10289318;28;97330;-83
2022/08/08 02:04:52;;;;;;;1.45;1.08;;;21.70;65.20;;;20.44;53.86;100316.22;10324694;28;96588;-83
2022/08/08 02:10:13;;;;;;;1.13;0.82;;;21.70;65.70;;;20.35;54.18;100300.59;10288126;28;96689;-83
2022/08/08 02:15:46;;;;;;;1.83;1.00;;;21.60;65.60;;;20.24;54.03;100300.31;10336912;28;96671;-83
2022/08/08 02:26:33;;;;;;;5.72;1.60;;;21.40;65.80;;;20.09;54.43;100301.75;10322093;28;97646;-82
2022/08/08 02:32:17;;;;;;;1.90;0.93;;;21.40;66.00;;;20.01;54.83;100308.31;10313373;28;96636;-82
2022/08/08 02:37:46;;;;;;;3.97;1.30;;;21.30;66.30;;;19.89;55.02;100326.28;10337877;28;96487;-82
2022/08/08 02:43:49;;;;;;;1.75;1.13;;;21.20;66.50;;;19.73;54.85;100333.09;10336467;28;96632;-82
2022/08/08 02:50:18;;;;;;;2.92;1.08;;;21.10;66.30;;;19.61;54.74;100332.19;10315846;28;96686;-83
2022/08/08 02:55:41;;;;;;;3.55;1.10;;;21.00;66.20;;;19.57;55.67;100347.16;10252545;28;96738;-82
2022/08/08 03:01:26;;;;;;;1.77;0.95;;;20.90;66.70;;;19.52;55.65;100332.47;10331258;28;96625;-83
2022/08/08 03:07:27;;;;;;;2.40;1.17;;;20.80;67.20;;;19.38;56.02;100335.53;10296761;28;96481;-83
2022/08/08 03:13:16;;;;;;;1.52;0.88;;;20.60;67.50;;;19.32;55.95;100342.63;10290650;28;96573;-83
2022/08/08 03:19:24;;;;;;;2.92;1.20;;;20.50;67.60;;;19.31;56.62;100348.22;10299686;28;96587;-83
2022/08/08 03:24:29;;;;;;;2.85;1.00;;;20.60;67.70;;;19.31;56.93;100359.84;10324264;28;96908;-83
2022/08/08 03:29:40;;;;;;;1.55;1.17;;;20.60;67.90;;;19.34;56.80;100374.75;10320586;28;96519;-83
2022/08/08 03:34:58;;;;;;;1.70;1.13;;;20.60;68.10;;;19.31;57.18;100375.16;10321098;28;96602;-83
2022/08/08 03:40:04;;;;;;;2.65;1.10;;;20.60;68.40;;;19.26;57.40;100370.47;10317777;28;96666;-83
2022/08/08 03:45:22;;;;;;;1.25;0.90;;;20.50;68.60;;;19.12;57.60;100358.94;10311519;28;96567;-82
2022/08/08 03:50:48;;;;;;;7.07;1.30;;;20.40;69.20;;;19.06;57.68;100362.53;10335514;28;96623;-83
2022/08/08 03:55:53;;;;;;;2.55;0.95;;;20.30;69.40;;;19.11;57.52;100360.00;10342007;28;98284;-82
2022/08/08 04:01:06;;;;;;;4.03;1.17;;;20.30;69.40;;;19.24;57.63;100359.88;10339061;28;96623;-83
2022/08/08 04:06:27;;;;;;;2.73;1.40;;;20.40;69.00;;;19.34;57.52;100359.41;10327133;28;96605;-83
2022/08/08 04:11:31;;;;;;;6.32;0.90;;;20.60;68.90;;;19.47;57.33;100337.69;10335125;28;96603;-80
2022/08/08 04:16:55;;;;;;;2.70;1.17;;;20.70;68.80;;;19.62;57.13;100344.66;10323551;28;97208;-80
2022/08/08 04:21:58;;;;;;;2.60;1.08;;;20.90;68.70;;;19.76;56.69;100341.59;10328454;28;96670;-80
2022/08/08 04:27:01;;;;;;;1.77;1.17;;;21.00;68.50;;;19.84;57.03;100345.84;10332295;28;98235;-80
2022/08/08 04:32:13;;;;;;;2.33;1.20;;;21.10;68.70;;;19.89;57.21;100359.47;10321773;28;96741;-80
2022/08/08 04:37:35;;;;;;;3.92;1.23;;;21.10;68.70;;;19.92;57.10;100372.53;10344457;28;96613;-80
2022/08/08 04:42:38;;;;;;;3.22;1.10;;;21.20;69.10;;;19.96;57.75;100384.50;10334820;28;96700;-80
2022/08/08 04:47:59;;;;;;;2.38;1.20;;;21.30;69.50;;;20.02;57.90;100378.19;10307900;28;96693;-80
2022/08/08 04:53:02;;;;;;;2.78;1.17;;;21.30;69.40;;;20.13;57.96;100373.09;10332343;28;96541;-80
2022/08/08 04:58:16;;;;;;;3.33;1.20;;;21.40;69.40;;;20.23;57.50;100368.00;10305708;28;96635;-80
2022/08/08 05:03:20;;;;;;;1.58;1.30;;;21.50;69.00;;;20.29;57.37;100381.41;10320311;28;97361;-80
2022/08/08 05:08:43;;;;;;;3.20;1.40;;;21.60;69.00;;;20.37;57.30;100393.75;10343366;28;96630;-80
2022/08/08 05:13:46;;;;;;;2.95;1.27;;;21.70;68.90;;;20.46;56.90;100388.91;10312693;28;99235;-80
2022/08/08 05:19:03;;;;;;;3.20;1.15;;;21.80;68.60;;;20.55;56.71;100385.66;10323071;28;97150;-91
2022/08/08 05:24:08;;;;;;;2.17;1.08;;;21.90;68.40;;;20.70;56.26;100384.44;10304266;28;97287;-90
2022/08/08 05:29:12;;;;;;;3.38;1.50;;;22.00;67.90;;;20.76;54.80;100394.31;10337394;28;98203;-89
2022/08/08 05:34:36;;;;;;;5.13;1.40;;;22.00;67.50;;;20.88;55.33;100400.59;10338867;28;96486;-89
2022/08/08 05:39:40;;;;;;;6.13;1.17;;;22.10;67.50;;;21.02;55.49;100393.91;10311085;28;97832;-90
2022/08/08 05:44:47;;;;;;;2.50;1.52;;;22.20;67.30;;;21.21;54.66;100399.22;10336412;28;96889;-90
2022/08/08 05:49:54;;;;;;;1.85;1.10;;;22.40;67.00;;;21.40;54.57;100398.09;10339638;28;96554;-90
2022/08/08 05:54:57;;;;;;;3.30;1.30;;;22.60;66.70;;;21.56;54.16;100400.09;10317183;28;96888;-90
2022/08/08 06:00:11;;;;;;;3.58;0.98;;;22.80;66.60;;;21.72;52.97;100397.78;10331721;28;97647;-90
2022/08/08 06:05:30;;;;;;;4.00;1.02;;;23.00;66.00;;;21.83;52.88;100394.19;10293366;28;96932;-89
2022/08/08 06:10:39;;;;;;;;;;;23.00;65.40;;;21.87;51.74;100398.91;10337952;28;96934;-88
2022/08/08 06:15:48;;;;;;;3.22;0.80;;;23.00;63.90;;;21.93;51.58;100405.25;10321480;28;96592;-89
2022/08/08 06:20:59;;;;;;;4.07;1.20;;;23.10;64.40;;;22.06;51.38;100385.22;10336960;28;96593;-90
2022/08/08 06:26:15;;;;;;;1.52;0.90;;;23.20;64.30;;;22.32;51.14;100400.16;10282596;28;96665;-90
2022/08/08 06:31:39;;;;;;;2.58;0.93;;;23.50;63.70;;;22.57;48.42;100391.69;10312023;28;96738;-90
2022/08/08 06:37:07;;;;;;;2.22;0.80;;;23.70;61.70;;;22.80;46.83;100397.00;10336035;28;96962;-91
2022/08/08 06:42:30;;;;;;;1.85;0.70;;;24.00;60.10;;;22.98;45.61;100400.59;10346135;28;96726;-90
2022/08/08 06:47:36;;;;;;;2.65;0.88;;;24.30;59.10;;;23.10;44.90;100399.47;10320907;28;96655;-90
2022/08/08 06:53:03;;;;;;;2.45;0.70;;;24.30;58.50;;;23.27;44.42;100387.78;10346495;28;96657;-91
2022/08/08 06:58:15;;;;;;;1.83;0.75;;;24.50;58.00;;;23.34;43.67;100388.47;10344834;28;96804;-90
2022/08/08 07:03:37;;;;;;;1.95;0.70;;;24.60;57.10;;;23.42;43.88;100380.72;10344229;28;96983;-91
2022/08/08 07:09:11;;;;;;;0.95;0.60;;;24.70;56.80;;;23.46;42.85;100391.91;10326932;28;97106;-90
2022/08/08 07:14:39;;;;;;;1.75;0.80;;;24.80;56.30;;;23.53;43.36;100389.84;10288636;28;97375;-91
2022/08/08 07:20:03;;;;;;;2.22;0.80;;;24.90;56.30;;;23.66;43.73;100394.94;10322470;28;96833;-91
2022/08/08 07:25:08;;;;;;;0.73;0.52;;;25.00;56.40;;;23.82;43.62;100401.41;10300995;28;96590;-90
2022/08/08 07:30:16;;;;;;;3.00;0.70;;;25.10;56.40;;;23.96;43.52;100407.28;10321906;28;97124;-90
2022/08/08 07:35:28;;;;;;;2.45;0.90;;;25.30;56.30;;;23.97;42.58;100407.03;10329539;28;96649;-91
2022/08/08 07:40:37;;;;;;;2.00;0.80;;;25.40;55.90;;;23.96;42.13;100404.56;10373850;28;96742;-91
2022/08/08 07:45:43;;;;;;;2.00;0.85;;;25.40;55.50;;;23.92;41.82;100404.25;10344540;28;96517;-91
2022/08/08 07:51:09;;;;;;;2.50;0.82;;;25.30;55.00;;;23.85;41.68;100403.59;10311643;28;96801;-90
2022/08/08 07:57:19;;;;;;;2.08;0.80;;;25.30;54.80;;;23.90;42.09;100417.25;10338074;28;97081;-90
2022/08/08 08:02:32;;;;;;;0.77;0.43;;;25.30;55.20;;;23.95;41.76;100413.78;10322567;28;96588;-91
2022/08/08 08:07:41;;;;;;;1.98;0.70;;;25.30;54.90;;;24.01;41.43;100420.94;10327489;28;96604;-90
2022/08/08 08:12:57;;;;;;;4.00;0.82;;;25.40;54.70;;;24.08;40.50;100418.84;10383530;28;96523;-89
2022/08/08 08:18:05;;;;;;;4.38;0.80;;;25.50;53.60;;;24.16;41.12;100423.84;10355979;28;96623;-90
2022/08/08 08:23:15;;;;;;;2.95;1.08;;;25.50;54.10;;;24.30;41.17;100427.00;10326478;28;96710;-90
2022/08/08 08:28:21;;;;;;;1.23;0.65;;;25.60;54.30;;;24.43;41.29;100418.50;10331691;28;97761;-89
2022/08/08 08:33:27;;;;;;;1.83;1.00;;;25.70;54.10;;;24.55;40.96;100421.91;10333993;28;96813;-90
2022/08/08 08:38:33;;;;;;;6.53;1.40;;;25.70;53.80;;;24.66;41.70;100427.47;10305154;28;96701;-90
2022/08/08 08:43:40;;;;;;;2.78;1.17;;;25.80;54.50;;;24.75;41.45;100432.16;10307122;28;96808;-91
2022/08/08 08:48:48;;;;;;;4.75;0.90;;;26.00;54.50;;;24.78;41.14;100431.66;10299892;28;96779;-92
2022/08/08 08:53:54;;;;;;;2.83;0.90;;;26.00;54.30;;;24.87;41.44;100434.72;10298634;28;96794;-90
2022/08/08 08:59:04;;;;;;;5.70;1.00;;;26.20;54.60;;;25.07;41.65;100439.59;10307080;28;96694;-89
2022/08/08 09:04:22;;;;;;;2.23;0.80;;;26.30;55.00;;;25.33;42.52;100440.63;10323463;28;97056;-90
2022/08/08 09:09:41;;;;;;;2.35;0.95;;;26.50;55.70;;;25.49;41.00;100430.66;10326364;28;96689;-91
2022/08/08 09:14:57;;;;;;;1.67;0.85;;;26.60;54.70;;;25.62;40.76;100430.25;10338906;28;96441;-90
2022/08/08 09:20:01;;;;;;;3.22;0.88;;;26.70;54.50;;;25.69;40.00;100439.00;10339946;28;96662;-90
2022/08/08 09:25:25;;;;;;;1.80;0.85;;;26.80;53.90;;;25.66;39.89;100425.91;10309036;28;97427;-90
2022/08/08 09:30:52;;;;;;;1.63;0.63;;;26.80;53.90;;;25.63;40.09;100426.44;10285154;28;96740;-90
2022/08/08 09:35:57;;;;;;;3.50;2.27;;;26.80;54.00;;;25.68;40.11;100423.75;10315075;28;97109;-90
2022/08/08 09:41:05;;;;;;;1.63;1.00;;;26.80;53.80;;;25.75;39.83;100421.66;10313092;28;96560;-90
2022/08/08 09:46:10;;;;;;;1.73;0.90;;;26.90;53.80;;;25.82;39.48;100418.69;10319418;28;96783;-90
2022/08/08 09:51:30;;;;;;;1.17;0.80;;;26.90;53.30;;;25.89;39.25;100417.34;10350520;28;96663;-90
2022/08/08 09:57:04;;;;;;;1.45;0.70;;;27.00;53.50;;;25.98;38.69;100417.69;10298042;28;96514;-91
2022/08/08 10:02:27;;;;;;;1.30;0.90;;;27.10;53.00;;;26.06;39.02;100419.91;10336395;28;98127;-91
2022/08/08 10:07:31;;;;;;;1.52;0.85;;;27.30;52.80;;;26.12;39.04;100423.47;10322458;28;96973;-91
2022/08/08 10:12:45;;;;;;;1.55;0.80;;;27.40;52.90;;;26.17;38.83;100422.69;10338536;28;96774;-90
2022/08/08 10:17:59;;;;;;;1.17;0.68;;;27.50;52.70;;;26.18;39.17;100424.31;10321643;28;96754;-90
2022/08/08 10:23:16;;;;;;;2.40;0.80;;;27.40;52.80;;;26.20;38.29;100422.13;10286732;28;97421;-90
2022/08/08 10:28:43;;;;;;;3.20;1.10;;;27.50;52.50;;;26.21;38.26;100415.59;10297256;28;96549;-91
2022/08/08 10:33:58;;;;;;;1.58;0.90;;;27.50;52.40;;;26.24;39.00;100413.19;10322686;28;96873;-90
2022/08/08 10:39:26;;;;;;;2.03;1.00;;;27.50;52.20;;;26.23;38.93;100418.91;10309186;28;97628;-91
2022/08/08 10:44:59;;;;;;;2.65;1.10;;;27.50;52.40;;;26.19;39.32;100424.03;10313395;28;96559;-91
2022/08/08 10:50:06;;;;;;;2.72;1.30;;;27.50;52.90;;;26.15;39.86;100422.97;10337022;28;96477;-90
2022/08/08 10:55:14;;;;;;;2.95;1.40;;;27.40;53.50;;;26.07;41.41;100412.56;10327915;28;96750;-89
2022/08/08 11:00:44;;;;;;;3.53;1.25;;;27.30;54.80;;;25.98;43.06;100419.59;10335142;28;96453;-89
2022/08/08 11:06:06;;;;;;;3.25;1.65;;;27.20;56.40;;;25.79;43.48;100414.59;10322039;28;96648;-90
2022/08/08 11:11:15;;;;;;;2.88;1.42;;;26.90;57.00;;;25.56;43.57;100415.78;10321132;28;96507;-90
2022/08/08 11:16:44;;;;;;;4.22;1.42;;;26.60;57.30;;;25.38;44.33;100418.09;10337424;28;96522;-89
2022/08/08 11:21:53;;;;;;;3.90;1.90;;;26.40;58.10;;;25.14;46.73;100415.72;10336973;28;96740;-90
2022/08/08 11:27:02;;;;;;;4.28;2.00;;;26.20;60.50;;;24.77;49.30;100418.31;10337035;28;96407;-89
2022/08/08 11:32:25;;;;;;;4.63;2.35;;;25.90;63.40;;;24.29;52.34;100430.81;10335396;28;96573;-89
2022/08/08 11:37:33;;;;;;;5.53;2.78;;;25.40;65.80;;;23.84;55.59;100436.44;10335263;28;96675;-88
2022/08/08 11:42:58;;;;;;;6.43;2.95;;;24.90;68.90;;;23.35;58.81;100445.16;10343179;28;96508;-89
2022/08/08 11:48:02;;;;;;;5.35;3.05;;;24.40;72.50;;;22.98;60.72;100428.53;10341148;28;96586;-90
2022/08/08 11:53:09;;;;;;;3.13;2.78;;;24.00;74.50;;;22.67;62.80;100432.50;10329482;28;96442;-89
2022/08/08 11:58:17;;;;;;;5.25;2.78;;;23.70;76.60;;;22.47;64.18;100437.53;10342646;28;96563;-90
2022/08/08 12:03:26;;;;;;;4.47;3.47;;;23.50;78.30;;;22.30;65.33;100434.75;10338050;28;96569;-91
2022/08/08 12:08:36;;;;;;;4.63;3.17;;;23.30;79.20;;;22.18;65.86;100427.47;10363248;28;96600;-90
2022/08/08 12:13:40;;;;;;;3.17;2.75;;;23.20;79.50;;;22.11;65.58;100453.03;10366848;28;97181;-90
2022/08/08 12:19:11;;;;;;;3.60;3.20;;;23.20;79.70;;;22.04;66.79;100461.25;10319900;28;96506;-87
2022/08/08 12:24:18;;;;;;;5.15;3.67;;;23.10;81.00;;;21.71;67.38;100469.13;10299204;28;96442;-89
2022/08/08 12:29:34;;;;;;;8.32;3.85;;;22.80;81.30;;;21.43;68.86;100483.34;10312193;28;96567;-89
2022/08/08 12:34:49;;;;;;;6.07;4.03;;;22.60;82.40;;;21.16;70.30;100464.78;10340288;28;96482;-88
2022/08/08 12:39:56;;;;;;;5.32;4.10;;;22.30;84.20;;;20.99;71.49;100452.97;10340229;28;96697;-89
2022/08/08 12:45:09;;;;;;;5.13;3.83;;;22.10;86.00;;;20.94;72.93;100459.09;10341300;28;96587;-90
2022/08/08 12:50:44;;;;;;;4.32;3.63;;;22.00;87.70;;;20.99;73.54;100459.22;10316115;28;96764;-89
2022/08/08 12:55:54;;;;;;;4.20;3.42;;;22.00;88.90;;;21.10;74.25;100469.22;10315971;28;96568;-91
2022/08/08 13:01:18;;;;;;;4.10;3.20;;;22.10;90.00;;;21.41;74.82;100480.03;10311414;28;98207;-89
2022/08/08 13:06:37;;;;;;;3.90;3.50;;;22.40;90.90;;;21.78;74.16;100477.97;10312886;28;96932;-90
2022/08/08 13:11:52;;;;;;;4.78;3.58;;;22.80;91.20;;;22.00;72.27;100479.00;10284854;28;96479;-88
2022/08/08 13:17:19;;;;;;;3.78;3.00;;;23.00;90.60;;;22.24;70.40;100466.31;10300021;28;96328;-91
2022/08/08 13:22:43;;;;;;;3.60;2.63;;;23.20;89.70;;;22.55;68.48;100458.81;10324414;28;96882;-90
2022/08/08 13:27:54;;;;;;;3.20;2.60;;;23.50;87.60;;;22.92;66.20;100462.03;10339275;28;96806;-89
2022/08/08 13:33:03;;;;;;;2.83;2.53;;;23.90;85.60;;;23.24;64.83;100449.56;10331557;28;97646;-91
2022/08/08 13:38:07;;;;;;;3.55;2.30;;;24.30;84.10;;;23.65;62.62;100455.69;10330719;28;97033;-90
2022/08/08 13:43:16;;;;;;;2.42;2.22;;;24.70;81.00;;;23.87;59.78;100452.19;10332508;28;97069;-91
2022/08/08 13:48:22;;;;;;;2.25;1.88;;;24.90;77.90;;;23.91;58.25;100448.75;10306655;28;97413;-91
2022/08/08 13:53:29;;;;;;;3.22;2.13;;;24.90;75.90;;;23.84;57.34;100431.81;10298435;28;96793;-91
2022/08/08 13:58:50;;;;;;;2.30;1.85;;;24.90;74.80;;;23.72;56.06;100434.63;10296405;28;96675;-88
2022/08/08 14:04:01;;;;;;;2.35;1.70;;;24.80;72.80;;;23.63;55.77;100433.44;10297005;28;96566;-90
2022/08/08 14:09:10;;;;;;;2.53;1.73;;;24.70;72.80;;;23.65;54.35;100450.28;10337437;28;96927;-89
2022/08/08 14:14:46;;;;;;;3.40;1.77;;;24.80;70.70;;;23.63;54.75;100441.56;10323649;28;96677;-91
2022/08/08 14:19:50;;;;;;;3.65;1.60;;;24.70;71.70;;;23.63;54.42;100447.00;10313727;28;98161;-91
2022/08/08 14:25:09;;;;;;;4.30;1.38;;;24.70;71.50;;;23.63;54.28;100435.28;10342496;28;98396;-90
2022/08/08 14:30:19;;;;;;;1.95;1.50;;;24.80;70.70;;;23.67;54.50;100434.56;10316681;28;96606;-91
2022/08/08 14:35:26;;;;;;;1.85;1.55;;;24.80;70.60;;;23.86;54.08;100431.56;10317116;28;96634;-91
2022/08/08 14:40:40;;;;;;;2.75;1.60;;;25.10;70.40;;;24.10;53.23;100435.69;10312297;28;97606;-89
2022/08/08 14:45:47;;;;;;;2.50;1.40;;;25.30;69.70;;;24.19;53.38;100436.91;10326305;28;96602;-89
2022/08/08 14:51:05;;;;;;;2.55;1.63;;;25.50;69.30;;;24.25;53.57;100444.06;10311560;28;97818;-90
2022/08/08 14:56:10;;;;;;;2.47;1.48;;;25.50;69.30;;;24.34;53.24;100446.31;10319188;28;98749;-91
2022/08/08 15:01:14;;;;;;;2.70;1.75;;;25.60;69.20;;;24.43;53.40;100444.84;10354328;28;96821;-90
2022/08/08 15:06:25;;;;;;;2.40;1.90;;;25.60;69.40;;;24.47;53.55;100440.53;10330437;28;97334;-91
2022/08/08 15:11:33;;;;;;;2.88;1.73;;;25.70;69.50;;;24.48;53.89;100428.63;10336650;28;96690;-92
2022/08/08 15:16:47;;;;;;;3.03;1.63;;;25.70;70.00;;;24.53;53.80;100424.06;10353643;28;96672;-90
2022/08/08 15:21:50;;;;;;;2.72;1.88;;;25.70;69.90;;;24.55;53.57;100432.78;10341873;28;96624;-91
2022/08/08 15:26:55;;;;;;;2.13;1.55;;;25.60;69.90;;;24.72;53.47;100432.69;10318007;28;96838;-92
2022/08/08 15:31:58;;;;;;;3.03;1.50;;;25.70;69.90;;;24.82;52.54;100438.22;10340790;28;96499;-91
2022/08/08 15:37:22;;;;;;;2.88;1.50;;;25.80;69.40;;;24.96;52.60;100438.63;10315978;28;96649;-92
2022/08/08 15:42:26;;;;;;;1.77;1.40;;;25.90;69.30;;;25.00;52.31;100431.59;10324403;28;96618;-91
2022/08/08 15:47:43;;;;;;;2.03;1.63;;;26.00;69.10;;;24.95;52.76;100433.44;10316461;28;96713;-91
2022/08/08 15:53:07;;;;;;;2.13;1.30;;;25.90;69.50;;;24.78;52.81;100428.94;10341855;28;96673;-92
2022/08/08 15:58:12;;;;;;;2.28;1.52;;;25.80;69.70;;;24.64;53.51;100435.84;10324248;28;96758;-91
2022/08/08 16:03:15;;;;;;;3.00;1.83;;;25.60;70.10;;;24.37;54.01;100446.69;10333757;28;96715;-92
2022/08/08 16:08:18;;;;;;;2.58;1.50;;;25.40;70.50;;;24.17;54.86;100446.38;10317818;28;96673;-89
2022/08/08 16:13:22;;;;;;;1.33;1.17;;;25.20;71.40;;;24.15;54.28;100441.19;10330604;28;96724;-89
2022/08/08 16:18:47;;;;;;;1.63;1.40;;;25.20;70.50;;;24.19;52.90;100441.53;10316569;28;97752;-89
2022/08/08 16:24:13;;;;;;;2.78;1.50;;;25.20;69.40;;;24.13;52.64;100431.69;10325296;28;97541;-89
2022/08/08 16:29:18;;;;;;;3.33;1.30;;;25.20;68.80;;;24.10;52.96;100427.56;10350812;28;98000;-90
2022/08/08 16:34:39;;;;;;;3.85;1.60;;;25.20;69.20;;;24.06;52.43;100421.00;10317751;28;96589;-89
2022/08/08 16:39:42;;;;;;;2.33;1.45;;;25.10;68.70;;;23.95;52.73;100427.38;10319821;28;96756;-92
2022/08/08 16:45:04;;;;;;;2.67;1.50;;;25.10;68.70;;;23.92;52.57;100428.66;10319626;28;96873;-89
2022/08/08 16:50:27;;;;;;;3.47;1.60;;;25.10;68.60;;;23.85;52.80;100425.31;10310784;28;96801;-91
2022/08/08 16:55:33;;;;;;;2.25;1.40;;;25.00;68.50;;;23.72;52.93;100426.50;10300167;28;96519;-90
2022/08/08 17:00:56;;;;;;;3.35;1.50;;;24.90;68.70;;;23.50;53.21;100429.09;10323022;28;96607;-91
2022/08/08 17:06:01;;;;;;;2.42;1.67;;;24.70;68.90;;;23.17;53.57;100443.50;10322069;28;96658;-89
2022/08/08 17:11:04;;;;;;;2.40;1.60;;;24.40;69.50;;;22.90;54.20;100447.88;10313461;28;96642;-86
2022/08/08 17:16:13;;;;;;;4.80;2.07;;;24.00;70.10;;;22.58;55.25;100447.50;10298674;28;96619;-86
2022/08/08 17:21:17;;;;;;;2.50;1.65;;;23.70;71.20;;;22.31;56.56;100458.03;10312830;28;96697;-85
2022/08/08 17:26:23;;;;;;;2.38;1.70;;;23.40;72.30;;;22.16;57.42;100463.97;10362592;28;96759;-87
2022/08/08 17:31:31;;;;;;;2.42;1.58;;;23.30;73.00;;;22.04;57.78;100458.53;10339139;28;97298;-86
2022/08/08 17:36:47;;;;;;;3.00;1.90;;;23.20;73.50;;;21.89;58.50;100474.41;10336686;28;96689;-87
2022/08/08 17:42:05;;;;;;;3.75;2.03;;;23.10;74.10;;;21.72;58.60;100481.63;10339993;28;97492;-86
2022/08/08 17:47:08;;;;;;;2.55;1.77;;;22.90;74.50;;;21.66;59.25;100485.25;10331541;28;96846;-87
2022/08/08 17:52:11;;;;;;;4.68;2.00;;;22.80;74.90;;;21.55;59.23;100474.19;10302130;28;97375;-86
2022/08/08 17:57:14;;;;;;;3.40;2.15;;;22.80;75.70;;;21.49;59.96;100479.69;10307633;28;98503;-87
2022/08/08 18:02:20;;;;;;;2.53;1.73;;;22.70;75.70;;;21.40;59.98;100481.91;10336655;28;96608;-86
2022/08/08 18:07:31;;;;;;;3.92;2.10;;;22.60;76.00;;;21.29;60.23;100467.31;10335194;28;97178;-87
2022/08/08 18:12:54;;;;;;;5.50;2.00;;;22.50;76.10;;;21.19;60.71;100479.72;10338580;28;96642;-86
2022/08/08 18:17:57;;;;;;;6.07;2.50;;;22.30;76.60;;;21.04;62.16;100486.34;10333790;28;96676;-85
2022/08/08 18:23:20;;;;;;;4.88;2.25;;;22.20;78.10;;;20.86;63.29;100486.41;10326783;28;97908;-86
2022/08/08 18:28:24;;;;;;;3.63;2.47;;;22.10;79.70;;;20.68;64.07;100491.84;10322449;28;98108;-84
2022/08/08 18:33:27;;;;;;;5.30;2.33;;;21.90;80.70;;;20.51;64.56;100499.72;10336220;28;97224;-81
2022/08/08 18:38:50;;;;;;;4.05;2.47;;;21.70;81.30;;;20.37;64.84;100501.72;10327186;28;97198;-81
2022/08/08 18:43:53;;;;;;;3.30;2.58;;;21.50;81.70;;;20.27;65.50;100510.34;10334207;28;96657;-81
2022/08/08 18:48:57;;;;;;;3.40;2.80;;;21.50;82.20;;;20.16;65.59;100512.97;10319923;28;96975;-81
2022/08/08 18:54:00;;;;;;;3.15;2.50;;;21.40;82.80;;;20.04;66.32;100518.25;10323191;28;96641;-81
2022/08/08 18:59:15;;;;;;;3.05;2.53;;;21.30;83.30;;;19.96;66.28;100507.75;10329538;28;97722;-81
2022/08/08 19:04:18;;;;;;;3.67;2.55;;;21.20;83.60;;;19.94;66.81;100510.66;10323016;28;96608;-81
2022/08/08 19:09:21;;;;;;;3.83;2.28;;;21.20;83.70;;;19.92;66.33;100504.69;10308399;28;96638;-81
2022/08/08 19:14:45;;;;;;;2.75;2.05;;;21.10;83.70;;;19.93;66.52;100510.91;10304221;28;97350;-81
2022/08/08 19:19:49;;;;;;;3.63;2.22;;;21.10;83.60;;;19.94;66.32;100512.53;10322110;28;96744;-82
2022/08/08 19:25:05;;;;;;;4.30;2.58;;;21.20;83.50;;;19.94;66.10;100513.38;10322727;28;98336;-81
2022/08/08 19:30:28;;;;;;;6.40;2.70;;;21.30;83.40;;;19.91;66.34;100516.53;10301682;28;96882;-81
2022/08/08 19:35:32;;;;;;;3.30;2.78;;;21.20;83.30;;;19.92;66.18;100518.16;10318304;28;96930;-81
2022/08/08 19:40:55;;;;;;;4.85;2.78;;;21.20;83.20;;;19.90;66.33;100524.81;10325198;28;96785;-81
2022/08/08 19:46:02;;;;;;;5.13;2.38;;;21.20;83.10;;;19.87;65.89;100525.28;10322488;28;96537;-80
2022/08/08 19:51:05;;;;;;;5.00;2.88;;;21.20;82.90;;;19.89;65.65;100525.88;10316283;28;97250;-82
2022/08/08 19:56:08;;;;;;;4.05;2.50;;;21.20;82.60;;;19.89;65.44;100524.00;10309060;28;96423;-82
2022/08/08 20:01:14;;;;;;;5.95;3.03;;;21.30;82.60;;;19.93;65.59;100532.47;10310434;28;98480;-82
2022/08/08 20:06:21;;;;;;;2.88;2.47;;;21.30;82.40;;;19.93;65.47;100527.06;10341405;28;96723;-83
2022/08/08 20:11:24;;;;;;;7.85;3.05;;;21.30;82.30;;;19.91;65.54;100524.63;10338721;28;96539;-82
2022/08/08 20:16:27;;;;;;;5.00;2.50;;;21.30;82.40;;;19.94;65.41;100517.94;10358501;28;96747;-82
2022/08/08 20:21:31;;;;;;;3.13;2.45;;;21.30;82.40;;;19.97;65.30;100507.53;10308772;28;97411;-83
2022/08/08 20:26:40;;;;;;;3.22;2.10;;;21.30;82.30;;;20.00;65.31;100517.88;10338116;28;96950;-81
2022/08/08 20:31:50;;;;;;;2.60;2.08;;;21.30;82.20;;;20.00;65.03;100508.97;10331966;28;96690;-82
2022/08/08 20:37:13;;;;;;;4.97;2.05;;;21.40;82.20;;;20.02;64.99;100520.34;10329533;28;97899;-82
2022/08/08 20:42:19;;;;;;;3.92;2.08;;;21.40;82.10;;;20.08;65.39;100513.22;10338091;28;96641;-82
2022/08/08 20:47:30;;;;;;;2.03;1.80;;;21.40;82.10;;;20.11;64.85;100510.94;10336480;28;96525;-82
2022/08/08 20:52:40;;;;;;;3.60;2.05;;;21.50;82.00;;;20.15;64.81;100512.16;10335412;28;97234;-82
2022/08/08 20:57:49;;;;;;;4.45;2.00;;;21.50;81.90;;;20.21;64.62;100511.25;10338256;28;96976;-82
2022/08/08 21:02:54;;;;;;;5.43;2.10;;;21.50;81.80;;;20.28;64.53;100500.38;10314510;28;96781;-82
2022/08/08 21:07:57;;;;;;;4.43;1.88;;;21.60;81.70;;;20.31;64.70;100506.13;10333260;28;96713;-82
2022/08/08 21:13:20;;;;;;;6.00;2.10;;;21.60;81.60;;;20.36;64.65;100518.16;10309347;28;97328;-82
2022/08/08 21:18:41;;;;;;;2.60;1.75;;;21.70;81.60;;;20.41;64.49;100519.13;10328391;28;96694;-82
2022/08/08 21:23:47;;;;;;;4.68;2.28;;;21.70;81.60;;;20.42;64.58;100520.75;10337551;28;96634;-82
2022/08/08 21:29:05;;;;;;;3.25;1.90;;;21.80;81.60;;;20.42;63.98;100523.47;10301282;28;96695;-82
2022/08/08 21:34:13;;;;;;;5.93;2.30;;;21.80;81.40;;;20.36;64.02;100518.16;10315678;28;98228;-82
2022/08/08 21:39:22;;;;;;;5.72;2.17;;;21.70;81.40;;;20.32;64.61;100521.28;10341151;28;96568;-82
2022/08/08 21:44:43;;;;;;;2.22;1.55;;;21.70;81.50;;;20.29;64.51;100524.44;10325460;28;96645;-81